Aérodrome :
LOGIN :

S'inscrire | Disclaimer

   EN    FR    IT 

 










Légende :    VFR   VFR Marginal   IFR   IFR Intensif   IFR Très Intensif
Visi : 
Plafond : 
>= 8 km
>= 3000ft
5 à 8 km
1000 à 3000 ft
1500m à 5 km
500 à 1000 ft
800 à 1500m
200 à 500 ft
< 800m
< 200 ft
Symboles :   Orages  Brouillard  Fortes neiges  Fortes précipitations  Vent > 20 kt
SIGMETs :   Divers  Orages  Givrage  Turbulence  Onde Orograph.  Cendres Volcan.







- Altitude de l'aérodrome : 14 ft
- Code IATA : BRE


EDDW - Bremen Neuenland

DERNIER METAR :
  • 221850Z 33006KT 9999 FEW040 14/08 Q1018 NOSIG

METARs EXPIRÉS :
  • 221820Z 34007KT 9999 FEW040 15/08 Q1018 NOSIG
  • 221750Z 32009KT 290V350 9999 FEW034 16/09 Q1018 NOSIG
  • 221720Z 32009KT 290V350 9999 FEW038 16/08 Q1018 NOSIG
  • 221650Z 32008KT 290V350 9999 FEW039 16/08 Q1018 NOSIG
  • 221620Z 32009KT 9999 FEW039 16/08 Q1018 NOSIG

TAF TAF EDDW
Valide du 22 à 18h jusqu'au 23 à 18h UTC


221700Z 2218/2318 31009KT 9999 SCT035
BECMG 2219/2221 VRB03KT
BECMG 2300/2302 2500 BCFG
TEMPO 2302/2305 0800 FG
BECMG 2304/2306 9999
BECMG 2306/2308 25006KT
Pas de NOTAMs connus pour ce terrain.



MET'MAP, la Météo Aéronautique d'un coup d'oeil ! - Copyright ORBIFLY Décembre 2007 - Disclaimer

ORBIFLY MET'MAP TEAM :

Programmation & Développement : Alexandra Zaïnal
Conception & Développement : Baudouin d'Aumeries
Co-Programmation & Développement : Marc-Olivier Méhu
Soutien technique & logistique : Manuel Goepfert

Contact : metmap@orbifly.com




SOURCES & CREDITS :

   NOAA